This is the latest recevied weather packets stored in our database for station/object N9CQS-15. If no packets are shown the sender has not sent any weather packets the latest 10 day(s).
| Time | Temp. | Humidity | Pressure | Rain* | Wind** | Luminosity | Snow |
|---|---|---|---|---|---|---|---|
| 1777574341 | 16.67° C | 39% | 1016.9 hPa | 0 mm | - | - | - |
| 1777573742 | 17.78° C | 39% | 1017 hPa | 0 mm | - | - | - |
| 1777573142 | 17.22° C | 40% | 1017.1 hPa | 0 mm | - | - | - |
| 1777572543 | 17.78° C | 39% | 1017.1 hPa | 0 mm | - | - | - |
| 1777571941 | 16.67° C | 40% | 1017.3 hPa | 0 mm | - | - | - |
| 1777571341 | 17.78° C | 38% | 1017.2 hPa | 0 mm | - | - | - |
| 1777570741 | 17.78° C | 38% | 1017.5 hPa | 0 mm | - | - | - |
| 1777570141 | 17.22° C | 39% | 1017.7 hPa | 0 mm | - | - | - |
| 1777569542 | 17.22° C | 39% | 1017.7 hPa | 0 mm | - | - | - |
| 1777568941 | 16.67° C | 41% | 1017.7 hPa | 0 mm | - | - | - |
| 1777568341 | 16.11° C | 41% | 1017.8 hPa | 0 mm | - | - | - |
| 1777567742 | 16.11° C | 40% | 1018 hPa | 0 mm | - | - | - |
| 1777567141 | 16.11° C | 43% | 1017.9 hPa | 0 mm | - | - | - |
| 1777566542 | 16.11° C | 42% | 1017.9 hPa | 0 mm | - | - | - |
| 1777565941 | 15° C | 45% | 1018.2 hPa | 0 mm | - | - | - |
| 1777565342 | 15° C | 45% | 1018.1 hPa | 0 mm | - | - | - |
| 1777564742 | 15° C | 43% | 1018.1 hPa | 0 mm | - | - | - |
| 1777564142 | 14.44° C | 49% | 1018.3 hPa | 0 mm | - | - | - |
| 1777563542 | 13.89° C | 50% | 1018.4 hPa | 0 mm | - | - | - |
| 1777562941 | 13.89° C | 50% | 1018.4 hPa | 0 mm | - | - | - |
| 1777562341 | 13.33° C | 53% | 1018.6 hPa | 0 mm | - | - | - |
| 1777561741 | 12.78° C | 57% | 1018.9 hPa | 0 mm | - | - | - |
| 1777561141 | 12.78° C | 57% | 1018.8 hPa | 0 mm | - | - | - |
| 1777560542 | 12.22° C | 58% | 1019 hPa | 0 mm | - | - | - |
| 1777559943 | 11.67° C | 58% | 1018.9 hPa | 0 mm | - | - | - |
* Rain latest hour (hover to see other rain measurements)
** Current wind speed in m/s (hover to see current wind gust speed)